In Rescue
 
Open Full Screen Window  High Contrast Mode
Wind Gusting 20 knots
16
May 13, 2021 9:40 AM CDT
Weather Information
Wind Direction
  200 °
Wind Speed
  16 kt (18 mph)
Wind Gust
  20 kt (23 mph)
Altimeter
30.37 in
Visibility
10 SM
Temperature
15° C
59° F
Dewpoint
-02° C
28° F
Humidity
31%
1hr Rain Fall
00.00 in.
24hr Rain Fall
00.00 in.
Sky Condition
Clear
VFR

METAR KMJQ 131440Z AUTO 20016G20KT 10SM CLR 15/M02 A3037 RMK AO2

FAA Disclaimer: The data displayed is for advisory purposes only and is not to be used for flight planning or operations.